sensor_id;sensor_type;location;lat;lon;timestamp;pressure;altitude;pressure_sealevel;temperature;humidity
34205;BME280;20471;49.680;20.074;2023-01-28T00:02:06;97443.86;;;-1.93;74.01
34205;BME280;20471;49.680;20.074;2023-01-28T00:04:34;97443.29;;;-1.93;74.02
34205;BME280;20471;49.680;20.074;2023-01-28T00:07:03;97444.21;;;-1.91;74.09
34205;BME280;20471;49.680;20.074;2023-01-28T00:09:31;97440.60;;;-1.92;74.02
34205;BME280;20471;49.680;20.074;2023-01-28T00:11:59;97441.73;;;-1.95;74.01
34205;BME280;20471;49.680;20.074;2023-01-28T00:14:27;97440.35;;;-1.93;74.08
34205;BME280;20471;49.680;20.074;2023-01-28T00:16:55;97439.02;;;-1.90;74.18
34205;BME280;20471;49.680;20.074;2023-01-28T00:19:23;97436.13;;;-1.89;74.16
34205;BME280;20471;49.680;20.074;2023-01-28T00:21:51;97433.85;;;-1.98;73.95
34205;BME280;20471;49.680;20.074;2023-01-28T00:24:20;97436.21;;;-2.02;74.17
34205;BME280;20471;49.680;20.074;2023-01-28T00:26:48;97435.10;;;-2.02;74.31
34205;BME280;20471;49.680;20.074;2023-01-28T00:29:16;97434.39;;;-2.00;74.26
34205;BME280;20471;49.680;20.074;2023-01-28T00:31:44;97433.49;;;-1.97;74.23
34205;BME280;20471;49.680;20.074;2023-01-28T00:34:12;97431.68;;;-1.97;74.27
34205;BME280;20471;49.680;20.074;2023-01-28T00:36:40;97434.59;;;-1.96;74.37
34205;BME280;20471;49.680;20.074;2023-01-28T00:39:12;97433.52;;;-1.96;74.24
34205;BME280;20471;49.680;20.074;2023-01-28T00:41:41;97432.66;;;-2.00;74.26
34205;BME280;20471;49.680;20.074;2023-01-28T00:44:09;97435.83;;;-2.06;74.26
34205;BME280;20471;49.680;20.074;2023-01-28T00:46:37;97437.00;;;-2.05;74.34
34205;BME280;20471;49.680;20.074;2023-01-28T00:49:07;97440.75;;;-2.06;74.37
34205;BME280;20471;49.680;20.074;2023-01-28T00:51:35;97446.52;;;-2.07;74.44
34205;BME280;20471;49.680;20.074;2023-01-28T00:54:04;97444.70;;;-2.09;74.47
34205;BME280;20471;49.680;20.074;2023-01-28T00:56:32;97442.37;;;-2.14;74.42
34205;BME280;20471;49.680;20.074;2023-01-28T00:59:02;97444.05;;;-2.15;74.46
34205;BME280;20471;49.680;20.074;2023-01-28T01:01:30;97442.11;;;-2.13;74.48
34205;BME280;20471;49.680;20.074;2023-01-28T01:03:59;97448.23;;;-2.13;74.69
34205;BME280;20471;49.680;20.074;2023-01-28T01:06:37;97453.70;;;-2.13;74.61
34205;BME280;20471;49.680;20.074;2023-01-28T01:09:09;97453.89;;;-2.11;74.63
34205;BME280;20471;49.680;20.074;2023-01-28T01:11:37;97452.23;;;-2.10;74.69
34205;BME280;20471;49.680;20.074;2023-01-28T01:14:06;97453.73;;;-2.13;74.65
34205;BME280;20471;49.680;20.074;2023-01-28T01:16:34;97450.84;;;-2.12;74.71
34205;BME280;20471;49.680;20.074;2023-01-28T01:19:04;97451.45;;;-2.09;74.79
34205;BME280;20471;49.680;20.074;2023-01-28T01:21:34;97448.50;;;-2.10;74.73
34205;BME280;20471;49.680;20.074;2023-01-28T01:24:03;97446.83;;;-2.13;74.76
34205;BME280;20471;49.680;20.074;2023-01-28T01:26:31;97445.32;;;-2.14;74.73
34205;BME280;20471;49.680;20.074;2023-01-28T01:28:59;97445.00;;;-2.12;74.72
34205;BME280;20471;49.680;20.074;2023-01-28T01:31:27;97444.55;;;-2.09;74.90
34205;BME280;20471;49.680;20.074;2023-01-28T01:33:55;97448.30;;;-2.06;74.84
34205;BME280;20471;49.680;20.074;2023-01-28T01:36:23;97448.51;;;-2.08;74.56
34205;BME280;20471;49.680;20.074;2023-01-28T01:38:52;97445.79;;;-2.11;74.62
34205;BME280;20471;49.680;20.074;2023-01-28T01:41:28;97444.42;;;-2.10;74.74
34205;BME280;20471;49.680;20.074;2023-01-28T01:44:02;97449.45;;;-2.08;74.73
34205;BME280;20471;49.680;20.074;2023-01-28T01:51:45;97446.79;;;-2.03;74.67
34205;BME280;20471;49.680;20.074;2023-01-28T01:54:15;97448.60;;;-2.03;74.58
34205;BME280;20471;49.680;20.074;2023-01-28T01:56:46;97446.36;;;-2.02;74.58
34205;BME280;20471;49.680;20.074;2023-01-28T01:59:23;97446.88;;;-2.02;74.59
34205;BME280;20471;49.680;20.074;2023-01-28T02:01:53;97451.05;;;-2.01;74.77
34205;BME280;20471;49.680;20.074;2023-01-28T02:04:25;97454.02;;;-2.00;74.75
34205;BME280;20471;49.680;20.074;2023-01-28T02:06:54;97455.34;;;-2.02;74.76
34205;BME280;20471;49.680;20.074;2023-01-28T02:09:28;97455.22;;;-2.04;74.80
34205;BME280;20471;49.680;20.074;2023-01-28T02:12:00;97457.03;;;-2.03;74.86
34205;BME280;20471;49.680;20.074;2023-01-28T02:14:33;97459.10;;;-2.02;74.89
34205;BME280;20471;49.680;20.074;2023-01-28T02:17:03;97457.52;;;-2.02;74.85
34205;BME280;20471;49.680;20.074;2023-01-28T02:19:41;97453.92;;;-2.01;75.02
34205;BME280;20471;49.680;20.074;2023-01-28T02:22:36;97452.89;;;-2.00;74.99
34205;BME280;20471;49.680;20.074;2023-01-28T02:25:40;97454.81;;;-2.02;75.03
34205;BME280;20471;49.680;20.074;2023-01-28T02:31:06;97455.67;;;-2.05;75.12
34205;BME280;20471;49.680;20.074;2023-01-28T02:38:57;97452.80;;;-2.15;75.19
34205;BME280;20471;49.680;20.074;2023-01-28T02:41:32;97453.89;;;-2.15;75.26
34205;BME280;20471;49.680;20.074;2023-01-28T02:44:02;97455.27;;;-2.17;75.21
34205;BME280;20471;49.680;20.074;2023-01-28T02:49:18;97459.00;;;-2.15;75.33
34205;BME280;20471;49.680;20.074;2023-01-28T02:58:21;97457.14;;;-2.12;75.30
34205;BME280;20471;49.680;20.074;2023-01-28T03:01:14;97458.23;;;-2.10;75.21
34205;BME280;20471;49.680;20.074;2023-01-28T03:04:21;97460.41;;;-2.09;75.26
34205;BME280;20471;49.680;20.074;2023-01-28T03:06:53;97455.08;;;-2.08;75.23
34205;BME280;20471;49.680;20.074;2023-01-28T03:09:22;97455.11;;;-2.11;75.32
34205;BME280;20471;49.680;20.074;2023-01-28T03:11:57;97460.15;;;-2.14;75.33
34205;BME280;20471;49.680;20.074;2023-01-28T03:14:48;97456.81;;;-2.14;75.42
34205;BME280;20471;49.680;20.074;2023-01-28T03:17:40;97459.64;;;-2.12;75.41
34205;BME280;20471;49.680;20.074;2023-01-28T03:20:34;97457.48;;;-2.11;75.38
34205;BME280;20471;49.680;20.074;2023-01-28T03:23:41;97457.09;;;-2.11;75.50
34205;BME280;20471;49.680;20.074;2023-01-28T03:26:30;97454.20;;;-2.10;75.55
34205;BME280;20471;49.680;20.074;2023-01-28T03:29:20;97451.75;;;-2.15;75.57
34205;BME280;20471;49.680;20.074;2023-01-28T03:32:08;97454.58;;;-2.19;75.67
34205;BME280;20471;49.680;20.074;2023-01-28T03:34:55;97454.36;;;-2.18;75.66
34205;BME280;20471;49.680;20.074;2023-01-28T03:37:40;97451.42;;;-2.17;75.78
34205;BME280;20471;49.680;20.074;2023-01-28T03:40:10;97448.91;;;-2.18;75.84
34205;BME280;20471;49.680;20.074;2023-01-28T03:42:38;97451.46;;;-2.17;75.82
34205;BME280;20471;49.680;20.074;2023-01-28T03:45:07;97450.91;;;-2.15;75.80
34205;BME280;20471;49.680;20.074;2023-01-28T03:47:35;97445.89;;;-2.12;75.79
34205;BME280;20471;49.680;20.074;2023-01-28T03:50:06;97448.77;;;-2.09;75.73
34205;BME280;20471;49.680;20.074;2023-01-28T03:52:34;97451.14;;;-2.05;75.81
34205;BME280;20471;49.680;20.074;2023-01-28T03:55:03;97450.88;;;-2.05;75.62
34205;BME280;20471;49.680;20.074;2023-01-28T03:57:39;97452.49;;;-2.05;75.65
34205;BME280;20471;49.680;20.074;2023-01-28T04:00:08;97453.61;;;-2.06;75.53
34205;BME280;20471;49.680;20.074;2023-01-28T04:02:37;97454.35;;;-2.08;75.56
34205;BME280;20471;49.680;20.074;2023-01-28T04:05:07;97452.00;;;-2.10;75.62
34205;BME280;20471;49.680;20.074;2023-01-28T04:07:40;97450.91;;;-2.11;75.77
34205;BME280;20471;49.680;20.074;2023-01-28T04:10:09;97454.62;;;-2.15;75.64
34205;BME280;20471;49.680;20.074;2023-01-28T04:12:37;97455.61;;;-2.18;75.57
34205;BME280;20471;49.680;20.074;2023-01-28T04:15:05;97456.58;;;-2.20;75.57
34205;BME280;20471;49.680;20.074;2023-01-28T04:17:45;97461.17;;;-2.20;75.58
34205;BME280;20471;49.680;20.074;2023-01-28T04:20:14;97467.36;;;-2.22;75.51
34205;BME280;20471;49.680;20.074;2023-01-28T04:22:42;97465.76;;;-2.24;75.52
34205;BME280;20471;49.680;20.074;2023-01-28T04:25:10;97467.41;;;-2.23;75.52
34205;BME280;20471;49.680;20.074;2023-01-28T04:27:38;97468.13;;;-2.21;75.48
34205;BME280;20471;49.680;20.074;2023-01-28T04:30:07;97468.09;;;-2.18;75.51
34205;BME280;20471;49.680;20.074;2023-01-28T04:32:35;97471.77;;;-2.16;75.44
34205;BME280;20471;49.680;20.074;2023-01-28T04:35:03;97469.12;;;-2.16;75.40
34205;BME280;20471;49.680;20.074;2023-01-28T04:37:31;97474.09;;;-2.16;75.38
34205;BME280;20471;49.680;20.074;2023-01-28T04:40:00;97477.92;;;-2.16;75.30
34205;BME280;20471;49.680;20.074;2023-01-28T04:42:28;97480.15;;;-2.17;75.41
34205;BME280;20471;49.680;20.074;2023-01-28T04:44:56;97485.61;;;-2.17;75.56
34205;BME280;20471;49.680;20.074;2023-01-28T04:47:24;97489.48;;;-2.17;75.45
34205;BME280;20471;49.680;20.074;2023-01-28T04:49:52;97489.80;;;-2.18;75.41
34205;BME280;20471;49.680;20.074;2023-01-28T04:52:20;97495.69;;;-2.19;75.38
34205;BME280;20471;49.680;20.074;2023-01-28T04:54:48;97495.19;;;-2.20;75.53
34205;BME280;20471;49.680;20.074;2023-01-28T04:57:17;97498.55;;;-2.20;75.45
34205;BME280;20471;49.680;20.074;2023-01-28T04:59:45;97504.77;;;-2.18;75.47
34205;BME280;20471;49.680;20.074;2023-01-28T05:02:13;97499.55;;;-2.19;75.42
34205;BME280;20471;49.680;20.074;2023-01-28T05:04:41;97502.58;;;-2.19;75.44
34205;BME280;20471;49.680;20.074;2023-01-28T05:07:10;97507.44;;;-2.19;75.40
34205;BME280;20471;49.680;20.074;2023-01-28T05:09:38;97510.17;;;-2.19;75.43
34205;BME280;20471;49.680;20.074;2023-01-28T05:12:06;97512.49;;;-2.20;75.50
34205;BME280;20471;49.680;20.074;2023-01-28T05:14:34;97509.79;;;-2.19;75.50
34205;BME280;20471;49.680;20.074;2023-01-28T05:17:02;97509.77;;;-2.19;75.65
34205;BME280;20471;49.680;20.074;2023-01-28T05:19:30;97508.70;;;-2.19;75.64
34205;BME280;20471;49.680;20.074;2023-01-28T05:21:58;97505.48;;;-2.18;75.60
34205;BME280;20471;49.680;20.074;2023-01-28T05:24:27;97504.02;;;-2.18;75.56
34205;BME280;20471;49.680;20.074;2023-01-28T05:26:55;97505.61;;;-2.16;75.52
34205;BME280;20471;49.680;20.074;2023-01-28T05:29:23;97505.92;;;-2.15;75.40
34205;BME280;20471;49.680;20.074;2023-01-28T05:31:51;97510.17;;;-2.15;75.45
34205;BME280;20471;49.680;20.074;2023-01-28T05:34:19;97513.48;;;-2.15;75.61
34205;BME280;20471;49.680;20.074;2023-01-28T05:36:47;97511.67;;;-2.15;75.48
34205;BME280;20471;49.680;20.074;2023-01-28T05:39:15;97510.45;;;-2.15;75.52
34205;BME280;20471;49.680;20.074;2023-01-28T05:41:43;97515.10;;;-2.15;75.53
34205;BME280;20471;49.680;20.074;2023-01-28T05:44:12;97517.40;;;-2.16;75.49
34205;BME280;20471;49.680;20.074;2023-01-28T05:46:40;97518.13;;;-2.16;75.54
34205;BME280;20471;49.680;20.074;2023-01-28T05:49:12;97522.83;;;-2.17;75.47
34205;BME280;20471;49.680;20.074;2023-01-28T05:51:40;97524.11;;;-2.20;75.48
34205;BME280;20471;49.680;20.074;2023-01-28T05:54:09;97525.73;;;-2.20;75.52
34205;BME280;20471;49.680;20.074;2023-01-28T05:56:37;97526.33;;;-2.21;75.53
34205;BME280;20471;49.680;20.074;2023-01-28T05:59:06;97527.79;;;-2.19;75.57
34205;BME280;20471;49.680;20.074;2023-01-28T06:01:36;97529.63;;;-2.18;75.51
34205;BME280;20471;49.680;20.074;2023-01-28T06:04:04;97528.38;;;-2.18;75.49
34205;BME280;20471;49.680;20.074;2023-01-28T06:06:32;97535.24;;;-2.20;75.44
34205;BME280;20471;49.680;20.074;2023-01-28T06:09:00;97532.17;;;-2.21;75.41
34205;BME280;20471;49.680;20.074;2023-01-28T06:11:28;97535.13;;;-2.23;75.44
34205;BME280;20471;49.680;20.074;2023-01-28T06:13:56;97539.29;;;-2.22;75.52
34205;BME280;20471;49.680;20.074;2023-01-28T06:16:25;97539.17;;;-2.19;75.56
34205;BME280;20471;49.680;20.074;2023-01-28T06:18:53;97539.02;;;-2.17;75.45
34205;BME280;20471;49.680;20.074;2023-01-28T06:21:21;97542.79;;;-2.18;75.38
34205;BME280;20471;49.680;20.074;2023-01-28T06:23:49;97547.52;;;-2.20;75.30
34205;BME280;20471;49.680;20.074;2023-01-28T06:26:17;97552.71;;;-2.20;75.43
34205;BME280;20471;49.680;20.074;2023-01-28T06:28:45;97556.10;;;-2.18;75.49
34205;BME280;20471;49.680;20.074;2023-01-28T06:31:14;97559.77;;;-2.16;75.44
34205;BME280;20471;49.680;20.074;2023-01-28T06:33:42;97559.17;;;-2.20;75.49
34205;BME280;20471;49.680;20.074;2023-01-28T06:36:10;97564.15;;;-2.22;75.45
34205;BME280;20471;49.680;20.074;2023-01-28T06:38:38;97567.88;;;-2.22;75.45
34205;BME280;20471;49.680;20.074;2023-01-28T06:41:06;97570.50;;;-2.22;75.46
34205;BME280;20471;49.680;20.074;2023-01-28T06:43:34;97573.70;;;-2.20;75.54
34205;BME280;20471;49.680;20.074;2023-01-28T06:46:02;97577.58;;;-2.20;75.43
34205;BME280;20471;49.680;20.074;2023-01-28T06:48:30;97582.44;;;-2.22;75.37
34205;BME280;20471;49.680;20.074;2023-01-28T06:50:58;97587.95;;;-2.22;75.44
34205;BME280;20471;49.680;20.074;2023-01-28T06:53:27;97590.98;;;-2.22;75.35
34205;BME280;20471;49.680;20.074;2023-01-28T06:55:55;97589.89;;;-2.22;75.41
34205;BME280;20471;49.680;20.074;2023-01-28T06:58:23;97593.96;;;-2.22;75.35
34205;BME280;20471;49.680;20.074;2023-01-28T07:00:52;97599.05;;;-2.22;75.26
34205;BME280;20471;49.680;20.074;2023-01-28T07:03:20;97597.75;;;-2.24;75.39
34205;BME280;20471;49.680;20.074;2023-01-28T07:05:48;97600.04;;;-2.23;75.36
34205;BME280;20471;49.680;20.074;2023-01-28T07:08:16;97605.72;;;-2.26;75.28
34205;BME280;20471;49.680;20.074;2023-01-28T07:10:44;97608.46;;;-2.27;75.31
34205;BME280;20471;49.680;20.074;2023-01-28T07:13:12;97612.23;;;-2.26;75.38
34205;BME280;20471;49.680;20.074;2023-01-28T07:15:40;97612.21;;;-2.26;75.33
34205;BME280;20471;49.680;20.074;2023-01-28T07:18:09;97614.70;;;-2.24;75.28
34205;BME280;20471;49.680;20.074;2023-01-28T07:20:37;97614.90;;;-2.24;75.38
34205;BME280;20471;49.680;20.074;2023-01-28T07:23:05;97614.48;;;-2.23;75.28
34205;BME280;20471;49.680;20.074;2023-01-28T07:25:33;97613.44;;;-2.23;75.32
34205;BME280;20471;49.680;20.074;2023-01-28T07:28:01;97617.16;;;-2.24;75.29
34205;BME280;20471;49.680;20.074;2023-01-28T07:30:29;97620.52;;;-2.22;75.26
34205;BME280;20471;49.680;20.074;2023-01-28T07:32:58;97624.91;;;-2.22;75.24
34205;BME280;20471;49.680;20.074;2023-01-28T07:35:27;97627.70;;;-2.19;75.34
34205;BME280;20471;49.680;20.074;2023-01-28T07:37:56;97631.46;;;-2.17;75.31
34205;BME280;20471;49.680;20.074;2023-01-28T07:40:26;97635.44;;;-2.17;75.23
34205;BME280;20471;49.680;20.074;2023-01-28T07:42:55;97633.98;;;-2.14;75.23
34205;BME280;20471;49.680;20.074;2023-01-28T07:45:23;97634.08;;;-2.13;75.21
34205;BME280;20471;49.680;20.074;2023-01-28T07:47:56;97637.52;;;-2.10;75.13
34205;BME280;20471;49.680;20.074;2023-01-28T07:50:25;97635.61;;;-2.08;75.04
34205;BME280;20471;49.680;20.074;2023-01-28T07:52:55;97634.67;;;-2.07;75.08
34205;BME280;20471;49.680;20.074;2023-01-28T07:55:24;97635.05;;;-2.03;75.12
34205;BME280;20471;49.680;20.074;2023-01-28T07:57:54;97641.80;;;-2.02;75.11
34205;BME280;20471;49.680;20.074;2023-01-28T08:00:25;97644.75;;;-1.99;75.15
34205;BME280;20471;49.680;20.074;2023-01-28T08:02:58;97649.31;;;-1.97;75.13
34205;BME280;20471;49.680;20.074;2023-01-28T08:05:52;97650.44;;;-1.96;75.02
34205;BME280;20471;49.680;20.074;2023-01-28T08:08:19;97650.92;;;-1.95;75.10
34205;BME280;20471;49.680;20.074;2023-01-28T08:10:48;97651.64;;;-1.95;74.88
34205;BME280;20471;49.680;20.074;2023-01-28T08:13:17;97651.98;;;-1.95;74.97
34205;BME280;20471;49.680;20.074;2023-01-28T08:15:45;97656.41;;;-1.94;75.02
34205;BME280;20471;49.680;20.074;2023-01-28T08:18:15;97660.58;;;-1.93;74.99
34205;BME280;20471;49.680;20.074;2023-01-28T08:20:43;97658.55;;;-1.94;74.98
34205;BME280;20471;49.680;20.074;2023-01-28T08:23:15;97658.16;;;-1.93;74.90
34205;BME280;20471;49.680;20.074;2023-01-28T08:25:44;97654.45;;;-1.91;75.01
34205;BME280;20471;49.680;20.074;2023-01-28T08:28:14;97650.26;;;-1.92;74.92
34205;BME280;20471;49.680;20.074;2023-01-28T08:30:43;97654.02;;;-1.94;74.79
34205;BME280;20471;49.680;20.074;2023-01-28T08:33:14;97656.09;;;-1.96;74.83
34205;BME280;20471;49.680;20.074;2023-01-28T08:35:42;97654.85;;;-2.00;74.79
34205;BME280;20471;49.680;20.074;2023-01-28T08:38:12;97657.73;;;-1.98;74.87
34205;BME280;20471;49.680;20.074;2023-01-28T08:40:41;97657.54;;;-1.96;74.85
34205;BME280;20471;49.680;20.074;2023-01-28T08:43:10;97658.26;;;-1.96;74.70
34205;BME280;20471;49.680;20.074;2023-01-28T08:45:39;97658.58;;;-1.96;74.80
34205;BME280;20471;49.680;20.074;2023-01-28T08:48:10;97658.04;;;-1.94;74.69
34205;BME280;20471;49.680;20.074;2023-01-28T08:50:39;97658.63;;;-1.93;74.72
34205;BME280;20471;49.680;20.074;2023-01-28T08:53:15;97659.34;;;-1.91;74.67
34205;BME280;20471;49.680;20.074;2023-01-28T08:55:44;97662.10;;;-1.88;74.45
34205;BME280;20471;49.680;20.074;2023-01-28T08:58:15;97661.04;;;-1.83;74.42
34205;BME280;20471;49.680;20.074;2023-01-28T09:00:44;97662.89;;;-1.78;74.46
34205;BME280;20471;49.680;20.074;2023-01-28T09:03:12;97664.34;;;-1.74;74.46
34205;BME280;20471;49.680;20.074;2023-01-28T09:05:41;97662.24;;;-1.72;74.46
34205;BME280;20471;49.680;20.074;2023-01-28T09:08:13;97669.48;;;-1.68;74.40
34205;BME280;20471;49.680;20.074;2023-01-28T09:10:42;97670.46;;;-1.65;74.32
34205;BME280;20471;49.680;20.074;2023-01-28T09:13:13;97671.77;;;-1.62;74.19
34205;BME280;20471;49.680;20.074;2023-01-28T09:15:41;97673.73;;;-1.62;74.15
34205;BME280;20471;49.680;20.074;2023-01-28T09:18:10;97674.83;;;-1.60;74.08
34205;BME280;20471;49.680;20.074;2023-01-28T09:20:38;97672.77;;;-1.61;73.90
34205;BME280;20471;49.680;20.074;2023-01-28T09:23:07;97671.47;;;-1.62;73.86
34205;BME280;20471;49.680;20.074;2023-01-28T09:25:35;97676.48;;;-1.61;73.97
34205;BME280;20471;49.680;20.074;2023-01-28T09:28:04;97674.59;;;-1.60;73.89
34205;BME280;20471;49.680;20.074;2023-01-28T09:30:34;97677.55;;;-1.59;73.86
34205;BME280;20471;49.680;20.074;2023-01-28T09:33:03;97679.09;;;-1.58;73.94
34205;BME280;20471;49.680;20.074;2023-01-28T09:35:32;97679.70;;;-1.59;73.67
34205;BME280;20471;49.680;20.074;2023-01-28T09:38:00;97678.58;;;-1.59;73.71
34205;BME280;20471;49.680;20.074;2023-01-28T09:40:33;97679.38;;;-1.58;73.71
34205;BME280;20471;49.680;20.074;2023-01-28T09:43:33;97676.46;;;-1.57;73.69
34205;BME280;20471;49.680;20.074;2023-01-28T09:46:10;97676.86;;;-1.57;73.57
34205;BME280;20471;49.680;20.074;2023-01-28T09:48:45;97675.10;;;-1.59;73.61
34205;BME280;20471;49.680;20.074;2023-01-28T09:54:10;97670.95;;;-1.58;73.61
34205;BME280;20471;49.680;20.074;2023-01-28T09:56:42;97670.58;;;-1.54;73.60
34205;BME280;20471;49.680;20.074;2023-01-28T09:59:22;97670.21;;;-1.50;73.47
34205;BME280;20471;49.680;20.074;2023-01-28T10:01:54;97667.80;;;-1.46;73.52
34205;BME280;20471;49.680;20.074;2023-01-28T10:10:10;97669.61;;;-1.36;73.36
34205;BME280;20471;49.680;20.074;2023-01-28T10:15:38;97666.88;;;-1.40;73.35
34205;BME280;20471;49.680;20.074;2023-01-28T10:18:12;97669.34;;;-1.38;73.47
34205;BME280;20471;49.680;20.074;2023-01-28T10:20:54;97665.19;;;-1.32;73.47
34205;BME280;20471;49.680;20.074;2023-01-28T10:23:43;97662.34;;;-1.28;73.29
34205;BME280;20471;49.680;20.074;2023-01-28T10:26:21;97664.16;;;-1.27;73.18
34205;BME280;20471;49.680;20.074;2023-01-28T10:28:56;97661.39;;;-1.27;73.02
34205;BME280;20471;49.680;20.074;2023-01-28T10:31:31;97659.21;;;-1.29;73.00
34205;BME280;20471;49.680;20.074;2023-01-28T10:34:02;97659.27;;;-1.25;72.96
34205;BME280;20471;49.680;20.074;2023-01-28T10:36:31;97657.64;;;-1.23;72.91
34205;BME280;20471;49.680;20.074;2023-01-28T10:38:59;97660.80;;;-1.21;72.99
34205;BME280;20471;49.680;20.074;2023-01-28T10:41:28;97661.67;;;-1.21;72.83
34205;BME280;20471;49.680;20.074;2023-01-28T10:43:56;97658.63;;;-1.20;72.83
34205;BME280;20471;49.680;20.074;2023-01-28T10:46:31;97656.65;;;-1.20;72.77
34205;BME280;20471;49.680;20.074;2023-01-28T10:51:40;97657.16;;;-1.16;72.64
34205;BME280;20471;49.680;20.074;2023-01-28T10:56:46;97656.96;;;-1.11;72.45
34205;BME280;20471;49.680;20.074;2023-01-28T10:59:28;97660.25;;;-1.12;72.44
34205;BME280;20471;49.680;20.074;2023-01-28T11:02:00;97657.94;;;-1.08;72.40
34205;BME280;20471;49.680;20.074;2023-01-28T11:04:33;97654.23;;;-1.08;72.19
34205;BME280;20471;49.680;20.074;2023-01-28T11:09:36;97648.74;;;-1.01;72.35
34205;BME280;20471;49.680;20.074;2023-01-28T11:12:22;97645.13;;;-1.00;72.12
34205;BME280;20471;49.680;20.074;2023-01-28T11:15:04;97647.11;;;-0.97;72.20
34205;BME280;20471;49.680;20.074;2023-01-28T11:17:37;97643.40;;;-0.91;72.22
34205;BME280;20471;49.680;20.074;2023-01-28T11:20:19;97641.88;;;-0.88;72.04
34205;BME280;20471;49.680;20.074;2023-01-28T11:22:48;97641.80;;;-0.85;72.07
34205;BME280;20471;49.680;20.074;2023-01-28T11:27:55;97637.65;;;-0.80;71.91
34205;BME280;20471;49.680;20.074;2023-01-28T11:30:26;97634.67;;;-0.78;71.93
34205;BME280;20471;49.680;20.074;2023-01-28T11:33:07;97633.14;;;-0.75;71.87
34205;BME280;20471;49.680;20.074;2023-01-28T11:35:51;97635.20;;;-0.71;71.78
34205;BME280;20471;49.680;20.074;2023-01-28T11:38:21;97634.40;;;-0.67;71.75
34205;BME280;20471;49.680;20.074;2023-01-28T11:40:51;97634.78;;;-0.64;71.65
34205;BME280;20471;49.680;20.074;2023-01-28T11:43:28;97632.85;;;-0.64;71.52
34205;BME280;20471;49.680;20.074;2023-01-28T11:46:14;97633.89;;;-0.64;71.60
34205;BME280;20471;49.680;20.074;2023-01-28T11:51:54;97627.61;;;-0.55;71.33
34205;BME280;20471;49.680;20.074;2023-01-28T11:54:53;97626.48;;;-0.52;71.33
34205;BME280;20471;49.680;20.074;2023-01-28T12:02:53;97628.36;;;-0.44;71.35
34205;BME280;20471;49.680;20.074;2023-01-28T12:17:17;97628.01;;;-0.48;71.15
34205;BME280;20471;49.680;20.074;2023-01-28T12:20:13;97634.15;;;-0.49;71.07
34205;BME280;20471;49.680;20.074;2023-01-28T12:31:51;97637.80;;;-0.50;71.02
34205;BME280;20471;49.680;20.074;2023-01-28T12:47:49;97648.55;;;-1.01;71.08
34205;BME280;20471;49.680;20.074;2023-01-28T12:50:24;97650.39;;;-1.06;71.12
34205;BME280;20471;49.680;20.074;2023-01-28T12:55:45;97655.20;;;-1.23;71.33
34205;BME280;20471;49.680;20.074;2023-01-28T12:58:20;97653.73;;;-1.29;71.47
34205;BME280;20471;49.680;20.074;2023-01-28T13:00:53;97653.89;;;-1.31;71.49
34205;BME280;20471;49.680;20.074;2023-01-28T13:03:31;97653.88;;;-1.30;71.71
34205;BME280;20471;49.680;20.074;2023-01-28T13:06:07;97654.51;;;-1.23;71.77
34205;BME280;20471;49.680;20.074;2023-01-28T13:08:38;97654.60;;;-1.19;71.71
34205;BME280;20471;49.680;20.074;2023-01-28T13:11:13;97656.92;;;-1.15;71.76
34205;BME280;20471;49.680;20.074;2023-01-28T13:13:44;97657.33;;;-1.11;71.75
34205;BME280;20471;49.680;20.074;2023-01-28T13:16:13;97658.62;;;-1.07;71.72
34205;BME280;20471;49.680;20.074;2023-01-28T13:18:42;97658.92;;;-1.05;71.78
34205;BME280;20471;49.680;20.074;2023-01-28T13:21:15;97662.15;;;-1.03;71.68
34205;BME280;20471;49.680;20.074;2023-01-28T13:23:48;97660.30;;;-1.00;71.78
34205;BME280;20471;49.680;20.074;2023-01-28T13:28:50;97663.73;;;-1.14;71.49
34205;BME280;20471;49.680;20.074;2023-01-28T13:31:21;97669.96;;;-1.21;71.57
34205;BME280;20471;49.680;20.074;2023-01-28T13:39:13;97675.80;;;-1.43;71.45
34205;BME280;20471;49.680;20.074;2023-01-28T13:41:45;97678.79;;;-1.63;71.72
34205;BME280;20471;49.680;20.074;2023-01-28T13:44:28;97686.04;;;-1.70;72.03
34205;BME280;20471;49.680;20.074;2023-01-28T13:47:12;97686.36;;;-1.68;72.12
34205;BME280;20471;49.680;20.074;2023-01-28T13:49:45;97689.94;;;-1.60;72.26
34205;BME280;20471;49.680;20.074;2023-01-28T13:52:35;97690.05;;;-1.51;72.33
34205;BME280;20471;49.680;20.074;2023-01-28T14:17:15;97705.71;;;-1.36;72.07
34205;BME280;20471;49.680;20.074;2023-01-28T14:19:38;97708.20;;;-1.38;71.94
34205;BME280;20471;49.680;20.074;2023-01-28T14:22:18;97711.75;;;-1.42;71.96
34205;BME280;20471;49.680;20.074;2023-01-28T14:24:48;97712.14;;;-1.43;72.14
34205;BME280;20471;49.680;20.074;2023-01-28T14:27:26;97715.41;;;-1.38;72.09
34205;BME280;20471;49.680;20.074;2023-01-28T14:30:19;97713.04;;;-1.36;72.05
34205;BME280;20471;49.680;20.074;2023-01-28T14:32:51;97714.23;;;-1.40;72.05
34205;BME280;20471;49.680;20.074;2023-01-28T14:35:29;97714.00;;;-1.37;72.26
34205;BME280;20471;49.680;20.074;2023-01-28T14:37:58;97715.59;;;-1.33;72.23
34205;BME280;20471;49.680;20.074;2023-01-28T14:40:29;97718.60;;;-1.31;72.23
34205;BME280;20471;49.680;20.074;2023-01-28T14:42:57;97719.80;;;-1.33;72.25
34205;BME280;20471;49.680;20.074;2023-01-28T14:48:22;97718.69;;;-1.24;72.13
34205;BME280;20471;49.680;20.074;2023-01-28T15:02:24;97734.55;;;-1.49;72.29
34205;BME280;20471;49.680;20.074;2023-01-28T15:04:54;97741.17;;;-1.50;72.25
34205;BME280;20471;49.680;20.074;2023-01-28T15:07:24;97744.55;;;-1.52;72.29
34205;BME280;20471;49.680;20.074;2023-01-28T15:10:03;97742.38;;;-1.50;72.43
34205;BME280;20471;49.680;20.074;2023-01-28T15:12:38;97740.79;;;-1.52;72.53
34205;BME280;20471;49.680;20.074;2023-01-28T15:15:16;97744.46;;;-1.49;72.60
34205;BME280;20471;49.680;20.074;2023-01-28T15:17:47;97747.00;;;-1.44;72.65
34205;BME280;20471;49.680;20.074;2023-01-28T15:20:21;97747.86;;;-1.46;72.56
34205;BME280;20471;49.680;20.074;2023-01-28T15:22:51;97747.92;;;-1.44;72.74
34205;BME280;20471;49.680;20.074;2023-01-28T15:25:22;97748.93;;;-1.37;72.76
34205;BME280;20471;49.680;20.074;2023-01-28T15:27:53;97752.92;;;-1.32;72.61
34205;BME280;20471;49.680;20.074;2023-01-28T15:30:30;97750.97;;;-1.28;72.61